Santana de Cataguases, Brazil
Current Conditions -  °F | °C
As of 4:00 PM on Thursday 27 Nov 2014 (Local Time) from SBBQ Reporting Station
Rain Showers Rain Showers  
Wind Chill: 73°   Ceiling: 1500
Heat Index: 73°   Visibility: 5mi
Dew Point: 68°   Wind: 7mph
Humidity: 83%   Direction: 330°NNW
Pressure: 30"   Gusts: NA
Location:  21.29°S, 42.56°W
Report Text: SBBQ 271800Z 33006KT 8000 VCSH BKN015 BKN020 23/20 Q1016
Loading
Personal Weather Stations






























Interactive Weather Map New forecast layout! Learn more

10-Day Weather Forecast

Advertisements
Track Severe Weather on mobile